Time;durP1;ratioP1;P1;durP2;ratioP2;P2;SDS_P1;SDS_P2;PMS_P1;PMS_P2;Temp;Humidity;BMP_temperature;BMP_pressure;BME280_temperature;BME280_humidity;BME280_pressure;Samples;Min_cycle;Max_cycle;Signal;HPM_P1;HPM_P2
2020/12/05 00:02:18;;;;;;;33.08;16.70;;;8.70;59.60;;;;;;4942358;28;20138;-64
2020/12/05 00:04:44;;;;;;;32.08;17.83;;;8.70;59.60;;;;;;4947040;28;20472;-65
2020/12/05 00:07:10;;;;;;;37.35;17.15;;;8.70;59.60;;;;;;4946892;28;20705;-65
2020/12/05 00:09:36;;;;;;;36.70;17.48;;;8.70;59.60;;;;;;4957867;28;20038;-64
2020/12/05 00:12:06;;;;;;;35.00;17.05;;;8.70;59.60;;;;;;4945982;28;20066;-64
2020/12/05 00:14:32;;;;;;;32.47;17.02;;;8.70;59.60;;;;;;4947341;28;20571;-64
2020/12/05 00:16:58;;;;;;;33.90;16.42;;;8.70;59.50;;;;;;4944888;28;20155;-65
2020/12/05 00:19:23;;;;;;;33.55;17.27;;;8.70;59.50;;;;;;4938043;28;20094;-64
2020/12/05 00:21:56;;;;;;;34.60;16.60;;;8.70;59.40;;;;;;4944427;28;20074;-64
2020/12/05 00:24:23;;;;;;;35.58;17.60;;;8.70;59.40;;;;;;4945446;28;20058;-65
2020/12/05 00:26:53;;;;;;;32.85;16.45;;;8.70;59.40;;;;;;4945122;28;20106;-64
2020/12/05 00:29:20;;;;;;;39.28;16.27;;;8.70;59.40;;;;;;4944324;28;20038;-65
2020/12/05 00:31:51;;;;;;;34.63;18.55;;;8.70;59.30;;;;;;4950578;28;20046;-64
2020/12/05 00:34:20;;;;;;;34.85;17.08;;;8.60;59.20;;;;;;4949032;28;20446;-64
2020/12/05 00:36:45;;;;;;;33.63;16.67;;;8.60;59.20;;;;;;4950596;28;20542;-64
2020/12/05 00:39:11;;;;;;;33.05;17.08;;;8.60;59.20;;;;;;4953797;28;20057;-64
2020/12/05 00:41:37;;;;;;;32.25;16.92;;;8.60;59.20;;;;;;4949382;28;20940;-64
2020/12/05 00:44:03;;;;;;;32.63;15.60;;;8.60;59.80;;;;;;4941988;28;20027;-65
2020/12/05 00:46:29;;;;;;;35.50;17.55;;;8.60;59.80;;;;;;4943160;28;20549;-64
2020/12/05 00:48:54;;;;;;;36.60;16.10;;;8.60;59.10;;;;;;4944382;28;20047;-65
2020/12/05 00:51:20;;;;;;;30.05;15.43;;;8.60;59.00;;;;;;4946004;28;20035;-65
2020/12/05 00:53:45;;;;;;;31.10;16.35;;;8.60;59.00;;;;;;4946992;28;20074;-65
2020/12/05 00:56:17;;;;;;;31.90;16.52;;;8.60;59.00;;;;;;4947952;28;20050;-64
2020/12/05 00:58:42;;;;;;;35.85;17.88;;;8.60;59.00;;;;;;4947175;28;20039;-64
2020/12/05 01:01:08;;;;;;;31.90;17.08;;;8.50;59.00;;;;;;4948370;28;20050;-64
2020/12/05 01:03:33;;;;;;;35.33;16.77;;;8.50;59.00;;;;;;4944581;28;20039;-64
2020/12/05 01:05:59;;;;;;;35.22;16.65;;;8.60;59.10;;;;;;4944433;28;20131;-65
2020/12/05 01:08:25;;;;;;;36.85;17.38;;;8.60;59.10;;;;;;4947713;28;20037;-64
2020/12/05 01:10:51;;;;;;;34.88;16.58;;;8.60;59.10;;;;;;4952866;28;22121;-64
2020/12/05 01:13:16;;;;;;;33.03;16.58;;;8.60;59.10;;;;;;4950189;28;20035;-63
2020/12/05 01:15:42;;;;;;;37.95;18.33;;;8.60;59.00;;;;;;4944668;23;20062;-63
2020/12/05 01:18:08;;;;;;;32.03;16.63;;;8.60;59.00;;;;;;4932194;28;20048;-63
2020/12/05 01:20:34;;;;;;;36.28;16.88;;;8.60;59.10;;;;;;4935346;28;20069;-63
2020/12/05 01:23:00;;;;;;;40.35;17.88;;;8.60;59.10;;;;;;4940415;28;20481;-63
2020/12/05 01:25:25;;;;;;;35.47;17.80;;;8.60;59.10;;;;;;4933576;28;20543;-62
2020/12/05 01:27:51;;;;;;;33.05;16.08;;;8.60;59.10;;;;;;4935066;28;20173;-63
2020/12/05 01:30:17;;;;;;;37.67;17.30;;;8.60;59.20;;;;;;4937498;28;20114;-62
2020/12/05 01:32:42;;;;;;;36.03;18.55;;;8.60;59.20;;;;;;4935612;28;20212;-63
2020/12/05 01:35:08;;;;;;;34.28;16.63;;;8.60;59.20;;;;;;4936654;28;20047;-63
2020/12/05 01:37:33;;;;;;;38.03;17.20;;;8.60;59.20;;;;;;4949297;28;20628;-62
2020/12/05 01:39:59;;;;;;;31.90;17.02;;;8.60;59.30;;;;;;4935160;28;20094;-62
2020/12/05 01:42:25;;;;;;;34.55;17.77;;;8.60;59.30;;;;;;4935798;28;20074;-63
2020/12/05 01:44:50;;;;;;;37.08;17.10;;;8.50;59.30;;;;;;4935149;28;20078;-63
2020/12/05 01:47:16;;;;;;;38.10;18.10;;;8.50;59.30;;;;;;4935907;28;20114;-63
2020/12/05 01:49:42;;;;;;;36.15;18.30;;;8.50;59.40;;;;;;4932301;28;20571;-63
2020/12/05 01:52:08;;;;;;;34.40;17.75;;;8.50;59.40;;;;;;4932217;28;20050;-63
2020/12/05 01:54:35;;;;;;;37.55;17.67;;;8.50;59.40;;;;;;4938270;28;20616;-63
2020/12/05 01:57:03;;;;;;;33.65;17.38;;;8.50;59.40;;;;;;4935823;28;20050;-63
2020/12/05 01:59:30;;;;;;;35.80;16.95;;;8.50;59.40;;;;;;4937078;28;20567;-63
2020/12/05 02:01:57;;;;;;;39.33;18.30;;;8.40;59.40;;;;;;4949895;28;20035;-62
2020/12/05 02:04:29;;;;;;;38.42;18.15;;;8.40;59.40;;;;;;4939782;28;20159;-62
2020/12/05 02:07:00;;;;;;;36.53;17.40;;;8.40;59.40;;;;;;4934705;28;20114;-63
2020/12/05 02:09:32;;;;;;;34.00;17.15;;;8.40;59.40;;;;;;4933756;28;20036;-62
2020/12/05 02:12:19;;;;;;;33.92;16.98;;;8.40;59.30;;;;;;4936947;28;20072;-63
2020/12/05 02:14:48;;;;;;;32.53;16.95;;;8.40;59.40;;;;;;4935425;28;20086;-63
2020/12/05 02:17:16;;;;;;;38.20;17.42;;;8.30;59.40;;;;;;4937771;28;20067;-63
2020/12/05 02:19:46;;;;;;;37.20;17.23;;;8.40;59.40;;;;;;4932680;28;20050;-63
2020/12/05 02:22:18;;;;;;;34.45;17.83;;;8.40;59.40;;;;;;4936823;28;20039;-63
2020/12/05 02:24:46;;;;;;;35.50;16.77;;;8.40;59.40;;;;;;4936029;28;20044;-63
2020/12/05 02:27:12;;;;;;;35.03;17.80;;;8.40;59.30;;;;;;4935662;28;20047;-62
2020/12/05 02:29:38;;;;;;;38.60;17.50;;;8.50;59.30;;;;;;4945263;28;20047;-62
2020/12/05 02:32:04;;;;;;;33.20;16.90;;;8.50;59.10;;;;;;4933476;28;20113;-62
2020/12/05 02:34:31;;;;;;;36.92;17.70;;;8.50;59.10;;;;;;4937164;28;20062;-62
2020/12/05 02:37:00;;;;;;;33.35;17.15;;;8.50;59.00;;;;;;4946946;28;20126;-62
2020/12/05 02:39:26;;;;;;;36.70;18.00;;;8.50;59.10;;;;;;4933765;28;20047;-63
2020/12/05 02:41:52;;;;;;;33.00;17.95;;;8.50;59.00;;;;;;4935253;28;23858;-63
2020/12/05 02:44:18;;;;;;;32.20;17.05;;;8.50;58.90;;;;;;4935526;28;20070;-63
2020/12/05 02:46:49;;;;;;;41.75;17.35;;;8.60;58.80;;;;;;4935004;28;20522;-63
2020/12/05 02:49:14;;;;;;;37.67;16.33;;;8.50;58.70;;;;;;4939690;28;20040;-63
2020/12/05 02:51:41;;;;;;;34.20;16.42;;;8.50;58.70;;;;;;4936308;28;20037;-63
2020/12/05 02:54:07;;;;;;;40.88;19.05;;;8.50;58.70;;;;;;4934161;28;20130;-63
2020/12/05 02:56:35;;;;;;;34.90;17.95;;;8.50;58.70;;;;;;4935353;28;20039;-63
2020/12/05 02:59:01;;;;;;;40.13;19.33;;;8.50;58.70;;;;;;4932519;28;21845;-63
2020/12/05 03:01:26;;;;;;;39.47;18.73;;;8.50;58.60;;;;;;4948759;28;20047;-63
2020/12/05 03:03:52;;;;;;;37.60;18.73;;;8.40;58.50;;;;;;4934613;28;20126;-63
2020/12/05 03:06:18;;;;;;;39.65;19.42;;;8.40;58.60;;;;;;4934753;28;20658;-63
2020/12/05 03:08:43;;;;;;;39.13;19.70;;;8.30;58.60;;;;;;4932775;28;20046;-62
2020/12/05 03:11:09;;;;;;;36.00;18.17;;;8.30;58.60;;;;;;4935749;28;20039;-62
2020/12/05 03:13:34;;;;;;;40.75;19.58;;;8.30;58.70;;;;;;4934656;28;20039;-62
2020/12/05 03:16:00;;;;;;;35.22;17.48;;;8.30;58.60;;;;;;4939657;28;20051;-63
2020/12/05 03:18:26;;;;;;;37.30;18.85;;;8.20;58.60;;;;;;4929639;28;20081;-63
2020/12/05 03:20:51;;;;;;;38.28;18.65;;;8.20;58.70;;;;;;4933989;28;20044;-63
2020/12/05 03:23:17;;;;;;;35.28;19.10;;;8.20;58.70;;;;;;4950516;28;20046;-63
2020/12/05 03:25:42;;;;;;;38.40;19.55;;;8.20;58.70;;;;;;4934643;28;20139;-62
2020/12/05 03:28:08;;;;;;;40.70;20.23;;;8.20;58.70;;;;;;4933635;28;20480;-62
2020/12/05 03:30:34;;;;;;;37.80;19.00;;;8.20;58.80;;;;;;4934585;28;20032;-62
2020/12/05 03:33:00;;;;;;;37.78;19.95;;;8.10;58.60;;;;;;4935058;28;20455;-63
2020/12/05 03:35:26;;;;;;;38.03;18.45;;;8.20;58.90;;;;;;4935618;28;20535;-63
2020/12/05 03:37:54;;;;;;;38.25;19.73;;;8.20;58.80;;;;;;4933261;28;20043;-62
2020/12/05 03:40:20;;;;;;;39.97;21.10;;;8.20;58.70;;;;;;4938875;28;20126;-62
2020/12/05 03:42:46;;;;;;;41.08;20.15;;;8.20;58.60;;;;;;4934948;28;20517;-62
2020/12/05 03:45:11;;;;;;;38.50;19.75;;;8.20;58.60;;;;;;4934719;28;20046;-62
2020/12/05 03:47:37;;;;;;;37.05;18.98;;;8.30;58.60;;;;;;4934399;28;20039;-62
2020/12/05 03:50:06;;;;;;;44.50;20.23;;;8.30;58.60;;;;;;4934364;28;20047;-62
2020/12/05 03:52:31;;;;;;;37.55;20.27;;;8.30;58.50;;;;;;4936930;28;20575;-62
2020/12/05 03:54:57;;;;;;;38.90;19.92;;;8.30;58.50;;;;;;4950624;28;20035;-62
2020/12/05 03:57:22;;;;;;;37.22;18.90;;;8.30;58.50;;;;;;4936125;28;20050;-63
2020/12/05 03:59:48;;;;;;;43.30;19.95;;;8.30;58.40;;;;;;4933803;28;20031;-62
2020/12/05 04:02:15;;;;;;;39.08;20.05;;;8.30;58.30;;;;;;4935718;28;20086;-62
2020/12/05 04:04:40;;;;;;;41.38;20.08;;;8.30;58.30;;;;;;4934944;28;20066;-62
2020/12/05 04:07:06;;;;;;;36.85;19.95;;;8.30;58.40;;;;;;4931482;28;20606;-63
2020/12/05 04:09:32;;;;;;;41.17;19.80;;;8.30;58.50;;;;;;4933184;28;20047;-63
2020/12/05 04:11:57;;;;;;;43.75;21.00;;;8.30;58.40;;;;;;4935243;28;20055;-63
2020/12/05 04:14:23;;;;;;;38.03;19.50;;;8.30;58.40;;;;;;4937285;28;20050;-63
2020/12/05 04:16:48;;;;;;;42.50;21.60;;;8.30;58.40;;;;;;4934312;28;20723;-63
2020/12/05 04:19:14;;;;;;;43.13;19.85;;;8.30;58.40;;;;;;4932351;28;20070;-63
2020/12/05 04:21:40;;;;;;;40.17;20.17;;;8.30;58.40;;;;;;4934549;28;20050;-63
2020/12/05 04:24:05;;;;;;;41.90;20.50;;;8.30;58.40;;;;;;4934899;28;20492;-63
2020/12/05 04:26:31;;;;;;;42.38;21.33;;;8.30;58.40;;;;;;4948379;28;20044;-63
2020/12/05 04:28:56;;;;;;;41.65;20.13;;;8.30;58.40;;;;;;4931376;28;20039;-63
2020/12/05 04:31:22;;;;;;;52.05;22.23;;;8.30;58.40;;;;;;4934477;28;20047;-63
2020/12/05 04:33:48;;;;;;;44.58;21.83;;;8.30;58.40;;;;;;4935621;28;20047;-63
2020/12/05 04:36:13;;;;;;;47.17;21.73;;;8.30;58.40;;;;;;4935936;28;20032;-63
2020/12/05 04:38:39;;;;;;;44.20;22.48;;;8.30;58.40;;;;;;4932887;28;20040;-63
2020/12/05 04:41:05;;;;;;;45.40;22.20;;;8.30;58.40;;;;;;4936627;28;21934;-63
2020/12/05 04:43:33;;;;;;;42.92;21.88;;;8.30;58.40;;;;;;4934038;28;20400;-63
2020/12/05 04:45:59;;;;;;;43.28;20.90;;;8.30;58.40;;;;;;4935858;28;20690;-62
2020/12/05 04:48:27;;;;;;;44.88;22.83;;;8.30;59.00;;;;;;4930070;28;20035;-62
2020/12/05 04:50:54;;;;;;;44.88;22.13;;;8.30;58.50;;;;;;4933871;28;20054;-63
2020/12/05 04:53:21;;;;;;;42.28;21.35;;;8.30;58.40;;;;;;4934855;28;20508;-62
2020/12/05 04:55:47;;;;;;;44.40;21.77;;;8.30;58.40;;;;;;4935580;28;20047;-62
2020/12/05 04:58:18;;;;;;;48.40;23.42;;;8.20;58.30;;;;;;4929969;28;20414;-62
2020/12/05 05:00:45;;;;;;;39.67;21.50;;;8.20;58.50;;;;;;4935292;28;20094;-62
2020/12/05 05:03:15;;;;;;;43.47;21.55;;;8.20;58.50;;;;;;4930950;28;20035;-62
2020/12/05 05:05:40;;;;;;;46.72;23.10;;;8.20;58.50;;;;;;4927374;28;20055;-63
2020/12/05 05:08:06;;;;;;;46.20;22.75;;;8.20;58.50;;;;;;4933243;28;20031;-63
2020/12/05 05:10:34;;;;;;;48.38;22.83;;;8.10;58.40;;;;;;4936408;28;20055;-63
2020/12/05 05:15:43;;;;;;;48.05;24.88;;;8.10;58.50;;;;;;4936466;28;20050;-63
2020/12/05 05:18:09;;;;;;;46.67;24.13;;;8.10;58.50;;;;;;4937395;28;20044;-63
2020/12/05 05:20:45;;;;;;;48.88;24.95;;;8.00;58.50;;;;;;4937078;28;20106;-63
2020/12/05 05:23:18;;;;;;;43.05;22.00;;;8.00;58.50;;;;;;4940195;28;20177;-62
2020/12/05 05:25:55;;;;;;;50.20;23.70;;;8.00;58.60;;;;;;4938291;28;20066;-63
2020/12/05 05:28:23;;;;;;;50.92;23.23;;;7.90;58.50;;;;;;4932919;28;20467;-62
2020/12/05 05:33:46;;;;;;;47.08;23.90;;;7.90;58.70;;;;;;4934243;28;20051;-62
2020/12/05 05:36:26;;;;;;;44.60;24.00;;;7.80;58.60;;;;;;4937245;28;20114;-62
2020/12/05 05:38:58;;;;;;;49.10;23.90;;;7.80;58.80;;;;;;4931514;28;20079;-62
2020/12/05 05:41:25;;;;;;;48.05;24.63;;;7.80;58.70;;;;;;4935099;28;20039;-62
2020/12/05 05:44:12;;;;;;;50.78;23.15;;;7.80;58.70;;;;;;4935664;28;20745;-62
2020/12/05 05:46:49;;;;;;;47.10;23.95;;;7.80;58.70;;;;;;4935218;28;20134;-63
2020/12/05 05:49:26;;;;;;;49.45;24.63;;;7.80;58.70;;;;;;4932754;28;20042;-63
2020/12/05 05:51:52;;;;;;;49.08;23.25;;;7.70;58.70;;;;;;4933715;28;20035;-62
2020/12/05 05:54:21;;;;;;;50.95;24.80;;;7.70;58.90;;;;;;4938343;28;20166;-62
2020/12/05 05:56:56;;;;;;;49.38;24.75;;;7.70;58.90;;;;;;4933160;28;20031;-62
2020/12/05 05:59:23;;;;;;;45.17;23.77;;;7.60;58.90;;;;;;4938337;28;20038;-62
2020/12/05 06:01:51;;;;;;;49.70;24.98;;;7.60;59.00;;;;;;4931067;28;20066;-63
2020/12/05 06:04:31;;;;;;;48.85;24.55;;;7.60;59.10;;;;;;4935542;28;20093;-62
2020/12/05 06:07:01;;;;;;;47.60;24.48;;;7.60;59.10;;;;;;4933394;28;20898;-62
2020/12/05 06:09:48;;;;;;;47.03;24.58;;;7.60;59.10;;;;;;4931906;28;20432;-63
2020/12/05 06:12:26;;;;;;;47.55;24.30;;;7.70;59.20;;;;;;4933710;28;20082;-62
2020/12/05 06:14:53;;;;;;;49.53;25.20;;;7.70;59.20;;;;;;4933808;28;20095;-63
2020/12/05 06:17:19;;;;;;;51.78;25.83;;;7.70;59.10;;;;;;4931580;28;20099;-63
2020/12/05 06:19:47;;;;;;;51.90;24.83;;;7.70;59.00;;;;;;4932563;28;20039;-63
2020/12/05 06:22:25;;;;;;;48.67;24.80;;;7.70;59.00;;;;;;4935172;28;20039;-63
2020/12/05 06:24:56;;;;;;;51.53;25.65;;;7.70;59.00;;;;;;4934372;28;20047;-63
2020/12/05 06:27:24;;;;;;;50.38;24.63;;;7.70;59.00;;;;;;4933639;28;20043;-63
2020/12/05 06:29:50;;;;;;;52.10;26.75;;;7.60;59.00;;;;;;4930160;28;20495;-63
2020/12/05 06:32:40;;;;;;;49.65;25.30;;;7.60;59.00;;;;;;4930942;28;20051;-63
2020/12/05 06:35:32;;;;;;;48.85;26.05;;;7.60;59.00;;;;;;4927740;28;20031;-63
2020/12/05 06:37:59;;;;;;;52.08;25.48;;;7.60;58.90;;;;;;4928689;28;20102;-63
2020/12/05 06:40:25;;;;;;;55.97;25.70;;;7.50;58.90;;;;;;4932298;28;20039;-63
2020/12/05 06:42:53;;;;;;;50.15;25.77;;;7.50;58.90;;;;;;4933858;28;20046;-63
2020/12/05 06:45:28;;;;;;;53.30;26.05;;;7.40;59.10;;;;;;4935349;28;20047;-63
2020/12/05 06:47:54;;;;;;;58.30;27.27;;;7.40;59.20;;;;;;4934299;28;20082;-63
2020/12/05 06:50:33;;;;;;;55.78;28.20;;;7.40;59.20;;;;;;4931448;28;20034;-63
2020/12/05 06:52:58;;;;;;;62.30;27.63;;;7.30;59.20;;;;;;4933974;28;20149;-63
2020/12/05 06:55:34;;;;;;;54.22;25.80;;;7.30;59.40;;;;;;4932627;28;20039;-63
2020/12/05 06:58:05;;;;;;;58.50;28.02;;;7.30;59.50;;;;;;4935297;28;20039;-63
2020/12/05 07:00:38;;;;;;;58.10;27.67;;;7.20;59.60;;;;;;4935122;28;20043;-63
2020/12/05 07:03:06;;;;;;;58.65;28.27;;;7.20;59.60;;;;;;4937576;28;20531;-63
2020/12/05 07:05:33;;;;;;;61.72;28.20;;;7.20;59.70;;;;;;4935947;28;20548;-63
2020/12/05 07:08:01;;;;;;;55.72;28.08;;;7.20;59.70;;;;;;4932869;28;20047;-63
2020/12/05 07:10:45;;;;;;;63.72;30.02;;;7.20;60.40;;;;;;4937252;28;20035;-63
2020/12/05 07:13:16;;;;;;;58.80;28.17;;;7.20;59.80;;;;;;4952456;28;20120;-63
2020/12/05 07:15:43;;;;;;;58.15;28.88;;;7.20;59.90;;;;;;4949717;23;20043;-64
2020/12/05 07:18:10;;;;;;;61.58;29.45;;;7.30;60.00;;;;;;4948850;28;20139;-64
2020/12/05 07:20:36;;;;;;;64.30;30.00;;;7.30;60.10;;;;;;4938110;28;20042;-65
2020/12/05 07:23:02;;;;;;;63.25;30.08;;;7.30;60.10;;;;;;4936927;28;20062;-64
2020/12/05 07:25:31;;;;;;;61.10;28.65;;;7.30;60.20;;;;;;4936667;28;20036;-64
2020/12/05 07:27:57;;;;;;;64.78;30.27;;;7.30;60.20;;;;;;4935978;28;20105;-64
2020/12/05 07:30:22;;;;;;;67.07;29.90;;;7.30;60.20;;;;;;4937611;28;20027;-64
2020/12/05 07:32:49;;;;;;;64.75;30.38;;;7.30;60.20;;;;;;4933064;28;20063;-64
2020/12/05 07:35:15;;;;;;;64.47;29.60;;;7.30;60.30;;;;;;4944715;28;20038;-64
2020/12/05 07:37:42;;;;;;;67.80;30.73;;;7.30;60.30;;;;;;4936336;28;20047;-65
2020/12/05 07:40:08;;;;;;;65.80;29.75;;;7.30;60.40;;;;;;4936054;28;20526;-65
2020/12/05 07:42:40;;;;;;;67.47;30.52;;;7.30;60.40;;;;;;4936571;28;20046;-65
2020/12/05 07:45:11;;;;;;;69.53;29.48;;;7.30;60.60;;;;;;4937453;28;20074;-65
2020/12/05 07:47:38;;;;;;;58.92;30.25;;;7.40;60.60;;;;;;4935303;28;20067;-65
2020/12/05 07:50:05;;;;;;;66.10;29.05;;;7.40;60.60;;;;;;4935011;28;20036;-65
2020/12/05 07:52:31;;;;;;;67.65;30.80;;;7.40;60.60;;;;;;4935513;28;20065;-65
2020/12/05 07:55:02;;;;;;;65.95;29.95;;;7.40;60.60;;;;;;4937256;28;20047;-65
2020/12/05 07:57:30;;;;;;;64.60;30.73;;;7.40;60.60;;;;;;4951357;28;20041;-65
2020/12/05 08:00:09;;;;;;;65.50;30.50;;;7.40;60.60;;;;;;4937273;28;20046;-65
2020/12/05 08:02:35;;;;;;;65.50;31.33;;;7.40;60.50;;;;;;4934452;28;20523;-65
2020/12/05 08:05:05;;;;;;;66.07;29.88;;;7.30;60.40;;;;;;4939559;28;20051;-65
2020/12/05 08:07:39;;;;;;;68.45;31.58;;;7.30;60.60;;;;;;4939528;28;20048;-64
2020/12/05 08:10:15;;;;;;;62.50;30.10;;;7.30;60.70;;;;;;4936159;28;20884;-65
2020/12/05 08:12:43;;;;;;;67.22;31.23;;;7.20;60.70;;;;;;4941811;28;20065;-64
2020/12/05 08:15:18;;;;;;;64.32;30.58;;;7.20;60.80;;;;;;4936855;28;20042;-64
2020/12/05 08:17:45;;;;;;;68.03;31.67;;;7.30;61.00;;;;;;4934812;28;20412;-65
2020/12/05 08:20:11;;;;;;;68.55;31.65;;;7.30;61.00;;;;;;4936811;28;20039;-65
2020/12/05 08:22:37;;;;;;;65.18;29.25;;;7.30;61.70;;;;;;4937002;28;20039;-64
2020/12/05 08:25:04;;;;;;;68.72;31.98;;;7.30;60.90;;;;;;4934913;28;20416;-64
2020/12/05 08:27:30;;;;;;;64.72;31.17;;;7.40;61.00;;;;;;4936002;28;20040;-64
2020/12/05 08:29:57;;;;;;;60.10;30.08;;;7.40;61.00;;;;;;4935132;28;20070;-64
2020/12/05 08:32:24;;;;;;;65.97;30.80;;;7.40;61.00;;;;;;4936553;28;20590;-64
2020/12/05 08:34:50;;;;;;;71.70;31.50;;;7.50;61.00;;;;;;4936300;28;20039;-64
2020/12/05 08:37:24;;;;;;;63.08;30.77;;;7.40;60.80;;;;;;4936535;28;20047;-64
2020/12/05 08:39:51;;;;;;;72.70;31.67;;;7.50;60.80;;;;;;4936136;28;20524;-64
2020/12/05 08:42:17;;;;;;;70.45;32.10;;;7.50;60.90;;;;;;4937834;28;20562;-64
2020/12/05 08:44:43;;;;;;;68.30;31.77;;;7.50;60.90;;;;;;4939951;28;20051;-64
2020/12/05 08:47:09;;;;;;;72.50;33.53;;;7.50;60.90;;;;;;4938011;28;20066;-64
2020/12/05 08:49:45;;;;;;;75.78;32.72;;;7.50;60.90;;;;;;4934255;28;20099;-64
2020/12/05 08:52:11;;;;;;;68.65;32.42;;;7.50;60.90;;;;;;4935727;28;20045;-64
2020/12/05 08:54:45;;;;;;;74.05;33.42;;;7.50;61.00;;;;;;4939985;28;20040;-64
2020/12/05 08:57:14;;;;;;;71.60;32.85;;;7.50;61.10;;;;;;4938837;28;20040;-64
2020/12/05 08:59:41;;;;;;;72.75;31.50;;;7.50;61.10;;;;;;4930929;28;20043;-64
2020/12/05 09:02:07;;;;;;;73.35;33.42;;;7.50;61.10;;;;;;4935639;28;20062;-63
2020/12/05 09:04:35;;;;;;;73.38;34.47;;;7.50;61.20;;;;;;4934558;28;20082;-63
2020/12/05 09:07:18;;;;;;;74.28;33.10;;;7.50;61.30;;;;;;4938760;28;20403;-63
2020/12/05 09:09:47;;;;;;;80.65;33.67;;;7.60;61.50;;;;;;4935122;28;20384;-63
2020/12/05 09:12:18;;;;;;;70.90;33.58;;;7.60;61.50;;;;;;4938869;28;20050;-63
2020/12/05 09:14:47;;;;;;;75.63;33.10;;;7.60;61.50;;;;;;4935229;28;21795;-63
2020/12/05 09:17:27;;;;;;;74.18;32.65;;;7.60;61.60;;;;;;4934556;28;20067;-63
2020/12/05 09:20:08;;;;;;;73.65;33.30;;;7.60;61.70;;;;;;4927521;28;20039;-63
2020/12/05 09:22:34;;;;;;;70.07;32.03;;;7.70;61.70;;;;;;4932047;28;20134;-63
2020/12/05 09:25:01;;;;;;;73.20;31.98;;;7.70;61.70;;;;;;4930915;28;20109;-63
2020/12/05 09:27:39;;;;;;;67.57;31.40;;;7.70;61.80;;;;;;4933488;28;20046;-63
2020/12/05 09:30:13;;;;;;;73.85;33.20;;;7.80;62.00;;;;;;4927488;28;20074;-63
2020/12/05 09:32:41;;;;;;;72.28;31.40;;;7.80;61.90;;;;;;4922653;28;20051;-63
2020/12/05 09:35:08;;;;;;;71.82;32.38;;;7.90;62.00;;;;;;4932366;28;20562;-63
2020/12/05 09:37:34;;;;;;;68.88;30.65;;;8.00;62.00;;;;;;4928228;28;20057;-63
2020/12/05 09:39:59;;;;;;;67.93;31.70;;;8.00;62.00;;;;;;4930508;28;20412;-63
2020/12/05 09:42:25;;;;;;;69.55;32.38;;;8.10;62.00;;;;;;4942435;28;20047;-63
2020/12/05 09:44:51;;;;;;;71.43;30.17;;;8.10;61.90;;;;;;4931306;28;23926;-63
2020/12/05 09:47:17;;;;;;;73.93;32.08;;;8.10;62.00;;;;;;4928829;28;20070;-63
2020/12/05 09:49:43;;;;;;;71.13;30.73;;;8.20;62.20;;;;;;4927582;28;20139;-63
2020/12/05 09:52:08;;;;;;;71.93;31.65;;;8.30;62.10;;;;;;4927177;28;20131;-63
2020/12/05 09:54:36;;;;;;;71.85;31.52;;;8.30;62.10;;;;;;4930202;28;20086;-62
2020/12/05 09:57:06;;;;;;;66.15;31.05;;;8.30;62.10;;;;;;4923876;28;20039;-62
2020/12/05 10:02:07;;;;;;;67.53;29.70;;;8.50;62.20;;;;;;5144205;23;20224;-61
2020/12/05 10:04:35;;;;;;;68.15;30.63;;;8.50;62.10;;;;;;4934487;28;20039;-62
2020/12/05 10:07:00;;;;;;;70.30;30.40;;;8.50;62.10;;;;;;4939393;28;20141;-62
2020/12/05 10:09:26;;;;;;;70.10;30.58;;;8.50;62.10;;;;;;4953367;28;20131;-62
2020/12/05 10:11:52;;;;;;;65.07;29.63;;;8.60;62.10;;;;;;4934892;28;20579;-62
2020/12/05 10:14:17;;;;;;;63.15;28.75;;;8.60;62.20;;;;;;4932565;28;20047;-61
2020/12/05 10:16:43;;;;;;;68.65;30.77;;;8.60;62.40;;;;;;4939842;28;20089;-62
2020/12/05 10:19:09;;;;;;;70.07;29.98;;;8.70;62.40;;;;;;4938843;28;20300;-62
2020/12/05 10:21:34;;;;;;;67.78;31.73;;;8.70;62.50;;;;;;4933916;28;20121;-61
2020/12/05 10:24:00;;;;;;;70.93;30.95;;;8.80;62.80;;;;;;4939779;28;20035;-61
2020/12/05 10:26:25;;;;;;;72.57;30.92;;;8.90;63.00;;;;;;4942584;28;20043;-61
2020/12/05 10:28:51;;;;;;;64.43;30.60;;;9.10;63.20;;;;;;4939094;28;20424;-61
2020/12/05 10:31:17;;;;;;;60.22;30.40;;;9.20;63.00;;;;;;4933752;28;20039;-61
2020/12/05 10:33:42;;;;;;;64.18;29.92;;;9.30;62.60;;;;;;4935969;28;20034;-62
2020/12/05 10:36:08;;;;;;;59.28;29.70;;;9.30;62.40;;;;;;4940863;28;20507;-63
2020/12/05 10:38:34;;;;;;;59.20;28.52;;;9.30;62.10;;;;;;4932304;28;20058;-62
2020/12/05 10:40:59;;;;;;;64.53;31.15;;;9.30;62.20;;;;;;4941178;28;20039;-62
2020/12/05 10:43:25;;;;;;;67.47;29.95;;;9.30;62.40;;;;;;4934589;28;20054;-63
2020/12/05 10:45:50;;;;;;;62.70;29.67;;;9.30;62.40;;;;;;4938093;28;20066;-60
2020/12/05 10:48:16;;;;;;;64.25;29.25;;;9.40;62.60;;;;;;4934924;28;20581;-60
2020/12/05 10:50:42;;;;;;;51.38;25.00;;;9.40;62.30;;;;;;4940912;28;20452;-61
2020/12/05 10:53:07;;;;;;;55.00;26.75;;;9.50;62.20;;;;;;4939689;28;20054;-62
2020/12/05 10:55:33;;;;;;;59.20;27.38;;;9.50;62.20;;;;;;4939434;28;20931;-62
2020/12/05 10:57:58;;;;;;;59.05;27.73;;;9.50;62.30;;;;;;4930952;28;20051;-62
2020/12/05 11:00:24;;;;;;;56.95;28.83;;;9.50;62.30;;;;;;4934711;28;21026;-62
2020/12/05 11:02:50;;;;;;;67.55;31.40;;;9.50;62.60;;;;;;4934269;28;20276;-63
2020/12/05 11:05:19;;;;;;;71.80;31.80;;;9.80;64.40;;;;;;4926602;28;20590;-62
2020/12/05 11:07:52;;;;;;;61.10;29.73;;;10.50;65.80;;;;;;4917555;28;20273;-63
2020/12/05 11:10:18;;;;;;;48.63;26.38;;;11.20;65.30;;;;;;4928083;28;20042;-64
2020/12/05 11:12:44;;;;;;;46.10;23.83;;;12.10;64.60;;;;;;4935969;28;20058;-63
2020/12/05 11:15:09;;;;;;;36.22;21.10;;;12.80;62.60;;;;;;4941708;28;20484;-63
2020/12/05 11:17:35;;;;;;;32.75;20.20;;;13.10;60.20;;;;;;4936299;28;20047;-63
2020/12/05 11:20:00;;;;;;;32.47;18.88;;;13.30;59.80;;;;;;4941249;28;21755;-63
2020/12/05 11:22:26;;;;;;;33.45;18.38;;;13.50;59.30;;;;;;4937611;28;20081;-64
2020/12/05 11:24:52;;;;;;;30.05;18.10;;;13.60;58.20;;;;;;4945087;28;20047;-63
2020/12/05 11:27:17;;;;;;;31.70;18.25;;;13.70;58.60;;;;;;4937869;28;20725;-63
2020/12/05 11:29:43;;;;;;;29.40;18.58;;;14.00;58.20;;;;;;4932604;28;20039;-63
2020/12/05 11:32:08;;;;;;;33.70;18.45;;;14.30;57.70;;;;;;4935468;28;20054;-63
2020/12/05 11:34:34;;;;;;;30.27;17.52;;;14.50;56.60;;;;;;4942619;28;20066;-63
2020/12/05 11:36:59;;;;;;;30.55;18.15;;;14.60;55.70;;;;;;4947927;28;20094;-63
2020/12/05 11:39:25;;;;;;;33.17;19.15;;;14.60;56.00;;;;;;4941322;28;20054;-63
2020/12/05 11:41:51;;;;;;;31.98;18.60;;;14.90;55.30;;;;;;4939149;28;20051;-63
2020/12/05 11:44:16;;;;;;;36.40;20.27;;;14.70;53.70;;;;;;4939673;28;20043;-63
2020/12/05 11:46:42;;;;;;;37.25;20.88;;;14.40;53.70;;;;;;4938245;28;20086;-63
2020/12/05 11:49:07;;;;;;;39.35;24.05;;;14.00;54.00;;;;;;4941077;28;20043;-63
2020/12/05 11:51:33;;;;;;;46.42;26.48;;;13.50;54.40;;;;;;4935593;28;20044;-63
2020/12/05 11:53:59;;;;;;;44.78;26.60;;;13.10;55.00;;;;;;4939178;28;20113;-63
2020/12/05 11:56:25;;;;;;;50.65;27.40;;;12.90;55.70;;;;;;4938905;28;20062;-63
2020/12/05 11:58:50;;;;;;;50.00;28.85;;;12.60;56.30;;;;;;4943007;28;20039;-63
2020/12/05 12:01:16;;;;;;;47.45;27.88;;;12.60;57.10;;;;;;4954489;28;20050;-63
2020/12/05 12:03:41;;;;;;;50.38;27.65;;;12.70;57.80;;;;;;4942394;28;20583;-63
2020/12/05 12:06:18;;;;;;;49.47;28.67;;;12.70;56.90;;;;;;4945603;28;20152;-63
2020/12/05 12:08:44;;;;;;;52.95;29.15;;;12.60;57.00;;;;;;4941139;28;20042;-63
2020/12/05 12:11:18;;;;;;;53.35;29.20;;;12.50;57.40;;;;;;4934014;28;20511;-63
2020/12/05 12:13:44;;;;;;;51.42;29.40;;;12.50;57.70;;;;;;4937153;28;20126;-63
2020/12/05 12:16:13;;;;;;;49.83;28.75;;;12.50;57.80;;;;;;4937566;28;20035;-68
2020/12/05 12:18:39;;;;;;;47.42;28.45;;;12.60;57.70;;;;;;4946738;28;20043;-68
2020/12/05 12:21:05;;;;;;;50.88;28.13;;;12.70;57.40;;;;;;4944811;28;20522;-67
2020/12/05 12:23:31;;;;;;;49.70;29.30;;;12.70;57.60;;;;;;4940363;28;20049;-64
2020/12/05 12:25:56;;;;;;;47.92;28.23;;;12.60;57.20;;;;;;4938025;28;20038;-64
2020/12/05 12:28:22;;;;;;;52.10;28.02;;;12.50;57.10;;;;;;4944981;28;20534;-63
2020/12/05 12:30:48;;;;;;;53.22;27.98;;;12.40;57.10;;;;;;4945601;28;20055;-64
2020/12/05 12:33:13;;;;;;;61.35;29.73;;;12.20;57.40;;;;;;4949261;28;20592;-64
2020/12/05 12:35:39;;;;;;;52.17;28.13;;;12.10;57.70;;;;;;4948463;28;20263;-64
2020/12/05 12:38:05;;;;;;;48.90;27.70;;;12.10;57.90;;;;;;4952799;28;20041;-63
2020/12/05 12:40:31;;;;;;;50.63;29.02;;;12.00;58.00;;;;;;4945845;28;20067;-63
2020/12/05 12:42:58;;;;;;;47.97;28.42;;;12.00;58.30;;;;;;4949045;28;20152;-63
2020/12/05 12:45:31;;;;;;;53.17;29.35;;;11.90;58.50;;;;;;4949092;28;20404;-63
2020/12/05 12:48:37;;;;;;;53.05;29.45;;;11.90;58.70;;;;;;4950189;28;20476;-63